createdAt,value
2018-11-12T00:00:09.145Z,9.37
2018-11-12T00:01:09.061Z,9.35
2018-11-12T00:02:08.990Z,9.29
2018-11-12T00:03:08.899Z,9.24
2018-11-12T00:04:08.828Z,9.28
2018-11-12T00:05:08.749Z,9.19
2018-11-12T00:06:08.672Z,9.24
2018-11-12T00:07:08.591Z,9.24
2018-11-12T00:08:08.516Z,9.31
2018-11-12T00:09:08.426Z,9.29
2018-11-12T00:10:08.359Z,9.28
2018-11-12T00:11:08.270Z,9.19
2018-11-12T00:12:08.192Z,9.22
2018-11-12T00:13:08.109Z,9.24
2018-11-12T00:14:08.040Z,9.14
2018-11-12T00:15:07.948Z,9.12
2018-11-12T00:16:07.879Z,9.14
2018-11-12T00:17:07.792Z,9.28
2018-11-12T00:18:07.721Z,9.24
2018-11-12T00:19:07.630Z,9.20
2018-11-12T00:20:07.564Z,9.22
2018-11-12T00:21:07.477Z,9.24
2018-11-12T00:22:07.398Z,9.17
2018-11-12T00:23:07.316Z,9.14
2018-11-12T00:24:07.244Z,9.19
2018-11-12T00:25:07.157Z,9.09
2018-11-12T00:26:08.086Z,9.09
2018-11-12T00:27:07.000Z,9.03
2018-11-12T00:28:06.925Z,9.16
2018-11-12T00:29:06.841Z,9.14
2018-11-12T00:30:06.768Z,9.16
2018-11-12T00:31:06.683Z,9.19
2018-11-12T00:32:06.608Z,9.22
2018-11-12T00:33:06.525Z,9.19
2018-11-12T00:34:06.455Z,9.25
2018-11-12T00:35:06.363Z,9.22
2018-11-12T00:36:06.289Z,9.22
2018-11-12T00:37:06.223Z,9.16
2018-11-12T00:38:06.129Z,9.16
2018-11-12T00:39:06.054Z,9.17
2018-11-12T00:40:05.980Z,9.16
2018-11-12T00:41:05.892Z,9.10
2018-11-12T00:42:05.815Z,9.17
2018-11-12T00:43:05.727Z,9.13
2018-11-12T00:44:05.660Z,9.10
2018-11-12T00:45:05.568Z,9.17
2018-11-12T00:46:05.499Z,9.22
2018-11-12T00:47:05.419Z,9.20
2018-11-12T00:48:05.336Z,9.24
2018-11-12T00:49:05.261Z,9.19
2018-11-12T00:50:05.188Z,9.22
2018-11-12T00:51:05.099Z,9.20
2018-11-12T00:52:05.012Z,9.19
2018-11-12T00:53:04.943Z,9.25
2018-11-12T00:54:04.855Z,9.20
2018-11-12T00:55:04.783Z,9.14
2018-11-12T00:56:04.697Z,9.14
2018-11-12T00:57:04.623Z,9.16
2018-11-12T00:58:04.534Z,9.16
2018-11-12T00:59:04.466Z,9.16
2018-11-12T01:00:04.376Z,9.19
2018-11-12T01:01:04.306Z,9.22
2018-11-12T01:02:04.220Z,9.13
2018-11-12T01:03:04.142Z,9.24
2018-11-12T01:04:04.120Z,9.16
2018-11-12T01:05:03.990Z,9.24
2018-11-12T01:06:03.905Z,9.19
2018-11-12T01:07:03.828Z,9.22
2018-11-12T01:08:03.742Z,9.17
2018-11-12T01:09:03.669Z,9.20
2018-11-12T01:10:03.595Z,9.19
2018-11-12T01:11:03.511Z,9.17
2018-11-12T01:12:03.424Z,9.17
2018-11-12T01:13:03.354Z,9.22
2018-11-12T01:14:03.264Z,9.19
2018-11-12T01:15:03.190Z,9.22
2018-11-12T01:16:03.116Z,9.19
2018-11-12T01:17:03.035Z,9.20
2018-11-12T01:18:02.950Z,9.14
2018-11-12T01:19:02.875Z,9.10
2018-11-12T01:20:02.791Z,9.06
2018-11-12T01:21:02.713Z,9.10
2018-11-12T01:22:02.630Z,9.13
2018-11-12T01:23:02.558Z,9.05
2018-11-12T01:24:02.470Z,9.10
2018-11-12T01:25:02.400Z,8.93
2018-11-12T01:26:02.311Z,8.75
2018-11-12T01:27:02.239Z,8.68
2018-11-12T01:28:02.154Z,8.60
2018-11-12T01:29:02.085Z,8.48
2018-11-12T01:30:01.992Z,8.43
2018-11-12T01:31:01.922Z,8.47
2018-11-12T01:32:01.837Z,8.43
2018-11-12T01:33:01.763Z,8.39
2018-11-12T01:34:01.677Z,8.37
2018-11-12T01:35:01.603Z,8.36
2018-11-12T01:36:01.515Z,8.44
2018-11-12T01:37:01.445Z,8.42
2018-11-12T01:38:01.359Z,8.43
2018-11-12T01:39:01.284Z,8.48
2018-11-12T01:40:01.198Z,8.51
2018-11-12T01:41:01.126Z,8.52
2018-11-12T01:42:01.053Z,8.48
2018-11-12T01:43:00.969Z,8.43
2018-11-12T01:44:00.877Z,8.27
2018-11-12T01:45:00.805Z,8.29
2018-11-12T01:46:00.719Z,8.19
2018-11-12T01:47:00.649Z,8.22
2018-11-12T01:48:00.577Z,8.19
2018-11-12T01:49:00.488Z,8.29
2018-11-12T01:50:00.404Z,8.27
2018-11-12T01:51:00.331Z,8.18
2018-11-12T01:52:00.246Z,8.17
2018-11-12T01:53:00.175Z,8.07
2018-11-12T01:54:00.085Z,8.00
2018-11-12T01:55:00.023Z,7.96
2018-11-12T01:55:59.924Z,7.97
2018-11-12T01:56:59.859Z,7.91
2018-11-12T01:57:59.769Z,7.90
2018-11-12T01:58:59.695Z,7.83
2018-11-12T01:59:59.610Z,7.91
2018-11-12T02:00:59.536Z,7.93
2018-11-12T02:01:59.448Z,7.96
2018-11-12T02:02:59.377Z,7.96
2018-11-12T02:03:59.288Z,8.06
2018-11-12T02:04:59.305Z,8.00
2018-11-12T02:05:59.128Z,7.96
2018-11-12T02:06:59.062Z,8.07
2018-11-12T02:07:58.967Z,7.97
2018-11-12T02:08:58.969Z,8.04
2018-11-12T02:09:58.811Z,8.07
2018-11-12T02:10:58.736Z,8.09
2018-11-12T02:11:58.650Z,8.07
2018-11-12T02:12:58.581Z,8.04
2018-11-12T02:13:58.496Z,7.97
2018-11-12T02:14:58.418Z,7.99
2018-11-12T02:15:58.332Z,7.93
2018-11-12T02:16:58.259Z,7.93
2018-11-12T02:17:58.177Z,7.86
2018-11-12T02:18:58.099Z,7.91
2018-11-12T02:19:58.012Z,7.88
2018-11-12T02:20:57.939Z,7.90
2018-11-12T02:21:57.890Z,7.91
2018-11-12T02:22:57.781Z,7.93
2018-11-12T02:23:57.695Z,7.86
2018-11-12T02:24:57.621Z,7.82
2018-11-12T02:25:57.537Z,7.67
2018-11-12T02:26:57.462Z,7.68
2018-11-12T02:27:57.373Z,7.68
2018-11-12T02:28:57.303Z,7.70
2018-11-12T02:29:57.218Z,7.55
2018-11-12T02:30:57.143Z,7.64
2018-11-12T02:31:57.055Z,7.64
2018-11-12T02:32:57.036Z,7.59
2018-11-12T02:33:56.895Z,7.55
2018-11-12T02:34:56.823Z,7.56
2018-11-12T02:35:56.735Z,7.67
2018-11-12T02:36:56.663Z,7.68
2018-11-12T02:37:56.574Z,7.70
2018-11-12T02:38:56.507Z,7.72
2018-11-12T02:39:56.417Z,7.72
2018-11-12T02:40:56.344Z,7.72
2018-11-12T02:41:56.251Z,7.78
2018-11-12T02:42:56.183Z,7.73
2018-11-12T02:43:56.096Z,7.64
2018-11-12T02:44:56.029Z,7.68
2018-11-12T02:45:55.942Z,7.57
2018-11-12T02:46:55.866Z,7.62
2018-11-12T02:47:55.782Z,7.72
2018-11-12T02:48:55.713Z,7.73
2018-11-12T02:49:55.614Z,7.70
2018-11-12T02:50:55.545Z,7.63
2018-11-12T02:51:55.459Z,7.72
2018-11-12T02:52:55.387Z,7.62
2018-11-12T02:53:55.297Z,7.72
2018-11-12T02:54:55.226Z,7.55
2018-11-12T02:55:55.150Z,7.53
2018-11-12T02:56:55.067Z,7.44
2018-11-12T02:57:54.979Z,7.39
2018-11-12T02:58:54.906Z,7.23
2018-11-12T02:59:54.827Z,7.24
2018-11-12T03:00:54.750Z,7.17
2018-11-12T03:01:54.657Z,7.16
2018-11-12T03:02:54.589Z,7.09
2018-11-12T03:03:54.496Z,7.06
2018-11-12T03:04:54.424Z,6.96
2018-11-12T03:05:54.345Z,6.96
2018-11-12T03:06:54.268Z,6.98
2018-11-12T03:07:54.181Z,6.94
2018-11-12T03:08:54.103Z,6.96
2018-11-12T03:09:54.015Z,6.93
2018-11-12T03:10:53.948Z,6.96
2018-11-12T03:11:53.858Z,6.94
2018-11-12T03:12:53.786Z,6.93
2018-11-12T03:13:53.698Z,6.87
2018-11-12T03:14:53.624Z,6.86
2018-11-12T03:15:53.536Z,6.78
2018-11-12T03:16:53.464Z,6.70
2018-11-12T03:17:53.377Z,6.68
2018-11-12T03:18:53.309Z,6.57
2018-11-12T03:19:53.217Z,6.68
2018-11-12T03:20:53.141Z,6.60
2018-11-12T03:21:53.062Z,6.66
2018-11-12T03:22:52.980Z,6.65
2018-11-12T03:23:52.893Z,6.54
2018-11-12T03:24:52.823Z,6.52
2018-11-12T03:25:52.734Z,6.60
2018-11-12T03:26:52.663Z,6.52
2018-11-12T03:27:52.688Z,6.51
2018-11-12T03:28:52.500Z,6.68
2018-11-12T03:29:52.411Z,6.50
2018-11-12T03:30:52.342Z,6.48
2018-11-12T03:31:52.254Z,6.47
2018-11-12T03:32:52.182Z,6.32
2018-11-12T03:33:52.091Z,6.39
2018-11-12T03:34:52.021Z,6.30
2018-11-12T03:35:51.939Z,6.27
2018-11-12T03:36:51.858Z,6.24
2018-11-12T03:37:51.773Z,6.13
2018-11-12T03:38:51.700Z,6.18
2018-11-12T03:39:51.803Z,6.10
2018-11-12T03:40:51.536Z,6.06
2018-11-12T03:41:51.461Z,6.06
2018-11-12T03:42:51.376Z,5.97
2018-11-12T03:43:51.290Z,6.06
2018-11-12T03:44:51.220Z,6.07
2018-11-12T03:45:51.132Z,6.07
2018-11-12T03:46:51.055Z,6.08
2018-11-12T03:47:50.969Z,6.13
2018-11-12T03:48:50.895Z,6.17
2018-11-12T03:49:50.803Z,6.24
2018-11-12T03:50:50.735Z,6.36
2018-11-12T03:51:50.642Z,6.42
2018-11-12T03:52:50.572Z,6.41
2018-11-12T03:53:50.482Z,6.52
2018-11-12T03:54:50.411Z,6.69
2018-11-12T03:55:50.321Z,6.70
2018-11-12T03:56:50.249Z,6.88
2018-11-12T03:57:50.168Z,6.93
2018-11-12T03:58:50.085Z,6.88
2018-11-12T03:59:50.001Z,7.03
2018-11-12T04:00:49.930Z,7.06
2018-11-12T04:01:49.841Z,7.19
2018-11-12T04:02:49.764Z,7.27
2018-11-12T04:03:49.675Z,7.21
2018-11-12T04:04:49.601Z,7.27
2018-11-12T04:05:49.515Z,7.21
2018-11-12T04:06:49.440Z,7.38
2018-11-12T04:07:49.361Z,7.35
2018-11-12T04:08:49.286Z,7.37
2018-11-12T04:09:49.194Z,7.37
2018-11-12T04:10:49.126Z,7.38
2018-11-12T04:11:49.033Z,7.35
2018-11-12T04:12:48.956Z,7.37
2018-11-12T04:13:48.872Z,7.45
2018-11-12T04:14:48.803Z,7.45
2018-11-12T04:15:48.713Z,7.37
2018-11-12T04:16:49.645Z,7.37
2018-11-12T04:17:48.555Z,7.35
2018-11-12T04:18:48.477Z,7.35
2018-11-12T04:19:48.389Z,7.37
2018-11-12T04:20:48.317Z,7.39
2018-11-12T04:21:48.236Z,7.35
2018-11-12T04:22:48.157Z,7.38
2018-11-12T04:23:48.066Z,7.34
2018-11-12T04:24:47.994Z,7.35
2018-11-12T04:25:47.908Z,7.38
2018-11-12T04:26:47.840Z,7.41
2018-11-12T04:27:47.750Z,7.47
2018-11-12T04:28:47.670Z,7.39
2018-11-12T04:29:47.589Z,7.45
2018-11-12T04:30:47.512Z,7.45
2018-11-12T04:31:47.426Z,7.45
2018-11-12T04:32:47.355Z,7.41
2018-11-12T04:33:47.268Z,7.44
2018-11-12T04:34:47.198Z,7.41
2018-11-12T04:35:47.106Z,7.38
2018-11-12T04:36:47.033Z,7.38
2018-11-12T04:37:46.945Z,7.39
2018-11-12T04:38:46.875Z,7.38
2018-11-12T04:39:46.787Z,7.34
2018-11-12T04:40:46.711Z,7.34
2018-11-12T04:41:46.624Z,7.31
2018-11-12T04:42:46.552Z,7.21
2018-11-12T04:43:46.457Z,7.06
2018-11-12T04:44:46.428Z,7.12
2018-11-12T04:45:46.355Z,7.03
2018-11-12T04:46:46.228Z,7.11
2018-11-12T04:47:46.146Z,7.13
2018-11-12T04:48:46.067Z,7.20
2018-11-12T04:49:45.978Z,7.19
2018-11-12T04:50:45.905Z,7.12
2018-11-12T04:51:45.819Z,7.19
2018-11-12T04:52:45.747Z,7.17
2018-11-12T04:53:45.767Z,7.06
2018-11-12T04:54:45.588Z,7.09
2018-11-12T04:55:45.497Z,7.11
2018-11-12T04:56:45.428Z,7.01
2018-11-12T04:57:45.337Z,6.98
2018-11-12T04:58:45.267Z,6.99
2018-11-12T04:59:45.175Z,7.05
2018-11-12T05:00:45.104Z,7.09
2018-11-12T05:01:45.101Z,7.11
2018-11-12T05:02:44.941Z,7.02
2018-11-12T05:03:44.858Z,7.09
2018-11-12T05:04:44.783Z,7.21
2018-11-12T05:05:44.694Z,7.21
2018-11-12T05:06:44.621Z,7.19
2018-11-12T05:07:44.541Z,7.13
2018-11-12T05:08:44.459Z,7.23
2018-11-12T05:09:44.375Z,7.29
2018-11-12T05:10:44.306Z,7.17
2018-11-12T05:11:44.212Z,7.20
2018-11-12T05:12:44.141Z,7.17
2018-11-12T05:13:44.052Z,7.19
2018-11-12T05:14:43.982Z,7.11
2018-11-12T05:15:43.890Z,7.06
2018-11-12T05:16:43.889Z,7.03
2018-11-12T05:17:43.731Z,7.02
2018-11-12T05:18:43.658Z,7.08
2018-11-12T05:19:43.570Z,7.06
2018-11-12T05:20:43.498Z,7.17
2018-11-12T05:21:43.414Z,7.06
2018-11-12T05:22:43.360Z,7.20
2018-11-12T05:23:43.248Z,7.21
2018-11-12T05:24:43.273Z,7.09
2018-11-12T05:25:43.087Z,7.11
2018-11-12T05:26:43.015Z,6.94
2018-11-12T05:27:42.930Z,6.94
2018-11-12T05:28:42.885Z,7.13
2018-11-12T05:29:42.864Z,7.09
2018-11-12T05:30:42.785Z,7.08
2018-11-12T05:31:42.607Z,7.08
2018-11-12T05:32:42.537Z,7.16
2018-11-12T05:33:42.444Z,7.12
2018-11-12T05:34:42.373Z,7.08
2018-11-12T05:35:42.283Z,7.08
2018-11-12T05:36:42.279Z,7.12
2018-11-12T05:37:42.183Z,7.16
2018-11-12T05:38:42.047Z,7.01
2018-11-12T05:39:41.962Z,6.93
2018-11-12T05:40:41.893Z,6.90
2018-11-12T05:41:41.801Z,6.94
2018-11-12T05:42:41.752Z,6.78
2018-11-12T05:43:41.644Z,6.81
2018-11-12T05:44:41.685Z,6.83
2018-11-12T05:45:41.481Z,6.86
2018-11-12T05:46:41.468Z,6.83
2018-11-12T05:47:41.324Z,6.81
2018-11-12T05:48:41.279Z,6.83
2018-11-12T05:49:41.163Z,6.81
2018-11-12T05:50:41.183Z,6.81
2018-11-12T05:51:42.021Z,6.80
2018-11-12T05:52:40.998Z,6.80
2018-11-12T05:53:40.837Z,6.80
2018-11-12T05:54:40.808Z,6.76
2018-11-12T05:55:40.675Z,6.66
2018-11-12T05:56:40.613Z,6.68
2018-11-12T05:57:40.515Z,6.65
2018-11-12T05:58:40.520Z,6.62
2018-11-12T05:59:40.353Z,6.57
2018-11-12T06:00:40.334Z,6.50
2018-11-12T06:01:40.192Z,6.50
2018-11-12T06:02:40.140Z,6.42
2018-11-12T06:03:40.035Z,6.44
2018-11-12T06:04:40.064Z,6.45
2018-11-12T06:05:39.870Z,6.44
2018-11-12T06:06:39.859Z,6.44
2018-11-12T06:07:39.709Z,6.47
2018-11-12T06:08:39.675Z,6.45
2018-11-12T06:09:39.550Z,6.44
2018-11-12T06:10:39.577Z,6.52
2018-11-12T06:11:39.386Z,6.68
2018-11-12T06:12:39.389Z,6.70
2018-11-12T06:13:39.227Z,6.81
2018-11-12T06:14:39.198Z,6.84
2018-11-12T06:15:39.064Z,6.87
2018-11-12T06:16:38.992Z,6.99
2018-11-12T06:17:38.903Z,6.90
2018-11-12T06:18:38.830Z,6.96
2018-11-12T06:19:38.747Z,6.99
2018-11-12T06:20:38.669Z,6.98
2018-11-12T06:21:38.585Z,6.98
2018-11-12T06:22:38.537Z,6.98
2018-11-12T06:23:38.419Z,7.01
2018-11-12T06:24:38.346Z,7.02
2018-11-12T06:25:38.260Z,7.09
2018-11-12T06:26:38.186Z,7.06
2018-11-12T06:27:38.096Z,7.17
2018-11-12T06:28:38.020Z,7.09
2018-11-12T06:29:37.936Z,7.17
2018-11-12T06:30:37.863Z,7.17
2018-11-12T06:31:37.777Z,7.09
2018-11-12T06:32:37.706Z,7.20
2018-11-12T06:33:37.616Z,7.13
2018-11-12T06:34:37.542Z,7.20
2018-11-12T06:35:37.453Z,7.19
2018-11-12T06:36:37.395Z,7.19
2018-11-12T06:37:37.294Z,7.19
2018-11-12T06:38:37.219Z,7.26
2018-11-12T06:39:37.130Z,7.30
2018-11-12T06:40:37.060Z,7.17
2018-11-12T06:41:36.971Z,7.24
2018-11-12T06:42:37.047Z,7.31
2018-11-12T06:43:36.811Z,7.29
2018-11-12T06:44:36.738Z,7.26
2018-11-12T06:45:36.649Z,7.21
2018-11-12T06:46:36.574Z,7.24
2018-11-12T06:47:36.489Z,7.29
2018-11-12T06:48:36.413Z,7.30
2018-11-12T06:49:36.327Z,7.31
2018-11-12T06:50:36.256Z,7.38
2018-11-12T06:51:36.168Z,7.37
2018-11-12T06:52:36.135Z,7.38
2018-11-12T06:53:36.082Z,7.41
2018-11-12T06:54:35.933Z,7.45
2018-11-12T06:55:35.841Z,7.45
2018-11-12T06:56:35.776Z,7.45
2018-11-12T06:57:35.683Z,7.62
2018-11-12T06:58:35.606Z,7.62
2018-11-12T06:59:35.523Z,7.63
2018-11-12T07:00:35.452Z,7.67
2018-11-12T07:01:35.362Z,7.67
2018-11-12T07:02:35.288Z,7.88
2018-11-12T07:03:35.199Z,7.91
2018-11-12T07:04:35.125Z,7.96
2018-11-12T07:05:35.038Z,8.06
2018-11-12T07:06:35.022Z,8.18
2018-11-12T07:07:34.879Z,8.22
2018-11-12T07:08:34.802Z,8.14
2018-11-12T07:09:34.720Z,8.30
2018-11-12T07:10:34.647Z,8.47
2018-11-12T07:11:34.557Z,8.61
2018-11-12T07:12:34.485Z,8.70
2018-11-12T07:13:34.396Z,8.85
2018-11-12T07:14:34.326Z,9.02
2018-11-12T07:15:34.236Z,9.06
2018-11-12T07:16:34.162Z,9.24
2018-11-12T07:17:34.074Z,9.28
2018-11-12T07:18:34.002Z,9.34
2018-11-12T07:19:33.915Z,9.31
2018-11-12T07:20:33.838Z,9.31
2018-11-12T07:21:33.756Z,9.34
2018-11-12T07:22:33.681Z,9.34
2018-11-12T07:23:33.590Z,9.50
2018-11-12T07:24:33.522Z,9.65
2018-11-12T07:25:33.436Z,9.80
2018-11-12T07:26:33.359Z,9.85
2018-11-12T07:27:33.274Z,9.72
2018-11-12T07:28:33.201Z,9.98
2018-11-12T07:29:33.120Z,9.97
2018-11-12T07:30:33.078Z,10.07
2018-11-12T07:31:32.953Z,10.16
2018-11-12T07:32:32.885Z,10.16
2018-11-12T07:33:32.796Z,10.29
2018-11-12T07:34:32.723Z,10.41
2018-11-12T07:35:32.635Z,10.40
2018-11-12T07:36:32.566Z,10.39
2018-11-12T07:37:32.475Z,10.41
2018-11-12T07:38:32.403Z,10.51
2018-11-12T07:39:32.316Z,10.62
2018-11-12T07:40:32.250Z,10.55
2018-11-12T07:41:32.169Z,10.58
2018-11-12T07:42:32.084Z,10.74
2018-11-12T07:43:31.999Z,10.74
2018-11-12T07:44:31.927Z,10.74
2018-11-12T07:45:31.839Z,10.91
2018-11-12T07:46:31.766Z,10.88
2018-11-12T07:47:31.679Z,10.92
2018-11-12T07:48:31.668Z,10.85
2018-11-12T07:49:31.522Z,10.91
2018-11-12T07:50:31.456Z,10.83
2018-11-12T07:51:31.427Z,10.71
2018-11-12T07:52:31.290Z,10.71
2018-11-12T07:53:31.206Z,10.69
2018-11-12T07:54:31.135Z,10.51
2018-11-12T07:55:31.046Z,10.62
2018-11-12T07:56:31.042Z,10.51
2018-11-12T07:57:30.888Z,10.55
2018-11-12T07:58:30.817Z,10.56
2018-11-12T07:59:30.735Z,10.56
2018-11-12T08:00:30.663Z,10.69
2018-11-12T08:01:30.573Z,10.69
2018-11-12T08:02:30.500Z,10.69
2018-11-12T08:03:30.516Z,10.66
2018-11-12T08:04:30.340Z,10.74
2018-11-12T08:05:30.255Z,10.85
2018-11-12T08:06:30.182Z,10.92
2018-11-12T08:07:30.096Z,10.91
2018-11-12T08:08:30.024Z,11.02
2018-11-12T08:09:30.007Z,11.13
2018-11-12T08:10:29.867Z,10.93
2018-11-12T08:11:29.839Z,10.91
2018-11-12T08:12:29.703Z,11.00
2018-11-12T08:13:29.643Z,10.91
2018-11-12T08:14:29.637Z,10.84
2018-11-12T08:15:29.554Z,11.02
2018-11-12T08:16:29.386Z,11.03
2018-11-12T08:17:29.759Z,11.05
2018-11-12T08:18:29.224Z,11.18
2018-11-12T08:19:29.168Z,11.26
2018-11-12T08:20:29.073Z,11.39
2018-11-12T08:21:29.126Z,11.54
2018-11-12T08:22:28.917Z,11.76
2018-11-12T08:23:28.889Z,11.84
2018-11-12T08:24:28.763Z,11.53
2018-11-12T08:25:29.722Z,11.54
2018-11-12T08:26:28.601Z,11.67
2018-11-12T08:27:28.637Z,11.60
2018-11-12T08:28:28.437Z,11.57
2018-11-12T08:29:28.419Z,11.53
2018-11-12T08:30:28.382Z,11.47
2018-11-12T08:31:28.225Z,11.65
2018-11-12T08:32:28.131Z,11.84
2018-11-12T08:33:28.136Z,11.86
2018-11-12T08:34:27.975Z,12.09
2018-11-12T08:35:27.946Z,11.93
2018-11-12T08:36:27.875Z,11.98
2018-11-12T08:37:27.758Z,11.95
2018-11-12T08:38:27.657Z,12.11
2018-11-12T08:39:27.742Z,12.02
2018-11-12T08:40:27.587Z,11.87
2018-11-12T08:41:27.473Z,11.78
2018-11-12T08:42:27.340Z,11.86
2018-11-12T08:43:27.280Z,12.05
2018-11-12T08:44:27.186Z,12.15
2018-11-12T08:45:27.194Z,12.16
2018-11-12T08:46:27.029Z,12.33
2018-11-12T08:47:26.998Z,12.41
2018-11-12T08:48:26.943Z,12.41
2018-11-12T08:49:26.976Z,12.56
2018-11-12T08:50:26.715Z,12.24
2018-11-12T08:51:26.718Z,12.30
2018-11-12T08:52:26.565Z,12.18
2018-11-12T08:53:26.526Z,12.30
2018-11-12T08:54:26.410Z,12.21
2018-11-12T08:55:26.456Z,12.28
2018-11-12T08:56:26.246Z,12.34
2018-11-12T08:57:26.248Z,12.36
2018-11-12T08:58:26.090Z,12.31
2018-11-12T08:59:26.064Z,12.42
2018-11-12T09:00:25.939Z,12.49
2018-11-12T09:01:25.967Z,12.48
2018-11-12T09:02:25.779Z,12.48
2018-11-12T09:03:25.774Z,12.44
2018-11-12T09:04:25.625Z,12.48
2018-11-12T09:05:25.580Z,12.70
2018-11-12T09:06:25.466Z,12.71
2018-11-12T09:07:25.589Z,12.82
2018-11-12T09:08:25.308Z,12.89
2018-11-12T09:09:25.302Z,12.92
2018-11-12T09:10:25.159Z,13.00
2018-11-12T09:11:25.111Z,13.03
2018-11-12T09:12:24.999Z,12.91
2018-11-12T09:13:25.022Z,12.79
2018-11-12T09:14:24.844Z,12.84
2018-11-12T09:15:24.839Z,12.84
2018-11-12T09:16:24.690Z,12.82
2018-11-12T09:17:24.639Z,12.82
2018-11-12T09:18:24.532Z,12.74
2018-11-12T09:19:24.552Z,12.81
2018-11-12T09:20:24.384Z,12.86
2018-11-12T09:21:24.360Z,13.04
2018-11-12T09:22:24.221Z,13.06
2018-11-12T09:23:24.167Z,13.10
2018-11-12T09:24:24.123Z,13.09
2018-11-12T09:25:24.077Z,13.14
2018-11-12T09:26:23.909Z,13.02
2018-11-12T09:27:23.887Z,13.14
2018-11-12T09:28:23.783Z,12.97
2018-11-12T09:29:23.815Z,13.03
2018-11-12T09:30:23.602Z,12.97
2018-11-12T09:31:24.749Z,13.04
2018-11-12T09:32:23.453Z,13.09
2018-11-12T09:33:23.413Z,13.09
2018-11-12T09:34:23.294Z,12.99
2018-11-12T09:35:23.328Z,13.09
2018-11-12T09:36:23.136Z,13.24
2018-11-12T09:37:23.199Z,13.18
2018-11-12T09:38:22.988Z,12.94
2018-11-12T09:39:22.940Z,13.09
2018-11-12T09:40:22.868Z,13.06
2018-11-12T09:41:22.910Z,13.06
2018-11-12T09:42:22.676Z,13.00
2018-11-12T09:43:22.662Z,12.96
2018-11-12T09:44:22.569Z,12.88
2018-11-12T09:45:22.469Z,12.97
2018-11-12T09:46:22.371Z,13.11
2018-11-12T09:47:22.380Z,13.15
2018-11-12T09:48:22.207Z,13.21
2018-11-12T09:49:22.189Z,13.36
2018-11-12T09:50:22.053Z,13.36
2018-11-12T09:51:21.996Z,13.32
2018-11-12T09:52:21.901Z,13.25
2018-11-12T09:53:21.907Z,13.27
2018-11-12T09:54:21.780Z,13.29
2018-11-12T09:55:21.716Z,13.19
2018-11-12T09:56:21.585Z,13.18
2018-11-12T09:57:21.626Z,13.10
2018-11-12T09:58:21.433Z,12.99
2018-11-12T09:59:21.495Z,13.11
2018-11-12T10:00:21.436Z,13.24
2018-11-12T10:01:21.710Z,13.27
2018-11-12T10:02:21.843Z,13.33
2018-11-12T10:03:22.443Z,13.36
2018-11-12T10:04:21.783Z,13.21
2018-11-12T10:05:22.294Z,13.09
2018-11-12T10:06:22.207Z,13.03
2018-11-12T10:07:22.353Z,13.04
2018-11-12T10:08:22.334Z,13.14
2018-11-12T10:09:22.305Z,13.24
2018-11-12T10:10:23.448Z,13.37
2018-11-12T10:11:23.257Z,13.32
2018-11-12T10:12:23.608Z,13.40
2018-11-12T10:13:22.209Z,13.50
2018-11-12T10:14:22.972Z,13.48
2018-11-12T10:15:23.573Z,13.33
2018-11-12T10:16:22.896Z,13.40
2018-11-12T10:17:22.913Z,13.45
2018-11-12T10:18:19.887Z,13.59
2018-11-12T10:19:19.933Z,13.73
2018-11-12T10:20:19.783Z,13.95
2018-11-12T10:21:19.737Z,14.05
2018-11-12T10:22:19.594Z,14.09
2018-11-12T10:23:19.549Z,14.14
2018-11-12T10:24:19.429Z,14.09
2018-11-12T10:25:19.456Z,13.98
2018-11-12T10:26:19.272Z,14.03
2018-11-12T10:27:19.270Z,13.99
2018-11-12T10:28:19.121Z,13.92
2018-11-12T10:29:19.073Z,13.98
2018-11-12T10:30:18.963Z,14.01
2018-11-12T10:31:18.985Z,14.10
2018-11-12T10:32:18.811Z,14.13
2018-11-12T10:33:18.794Z,14.05
2018-11-12T10:34:18.659Z,13.95
2018-11-12T10:35:18.601Z,14.02
2018-11-12T10:36:18.505Z,14.07
2018-11-12T10:37:18.514Z,14.03
2018-11-12T10:38:18.349Z,14.02
2018-11-12T10:39:18.324Z,14.09
2018-11-12T10:40:18.196Z,14.03
2018-11-12T10:41:18.294Z,13.89
2018-11-12T10:42:18.041Z,13.86
2018-11-12T10:43:18.041Z,13.74
2018-11-12T10:44:17.889Z,13.68
2018-11-12T10:45:17.849Z,13.70
2018-11-12T10:46:17.738Z,13.87
2018-11-12T10:47:17.764Z,13.92
2018-11-12T10:48:17.586Z,14.05
2018-11-12T10:49:17.569Z,14.07
2018-11-12T10:50:17.428Z,14.11
2018-11-12T10:51:17.410Z,14.09
2018-11-12T10:52:17.276Z,14.13
2018-11-12T10:53:17.290Z,14.13
2018-11-12T10:54:17.201Z,14.16
2018-11-12T10:55:17.465Z,14.21
2018-11-12T10:56:16.971Z,14.23
2018-11-12T10:57:17.008Z,14.10
2018-11-12T10:58:16.839Z,14.13
2018-11-12T10:59:16.816Z,14.19
2018-11-12T11:00:16.696Z,14.13
2018-11-12T11:01:16.624Z,14.17
2018-11-12T11:02:16.509Z,14.27
2018-11-12T11:03:16.534Z,14.13
2018-11-12T11:04:16.355Z,14.16
2018-11-12T11:05:16.345Z,14.10
2018-11-12T11:06:16.203Z,14.05
2018-11-12T11:07:16.149Z,13.96
2018-11-12T11:08:16.131Z,13.95
2018-11-12T11:09:16.065Z,13.96
2018-11-12T11:10:15.895Z,13.96
2018-11-12T11:11:15.872Z,14.11
2018-11-12T11:12:15.744Z,14.24
2018-11-12T11:13:15.789Z,14.23
2018-11-12T11:14:15.589Z,14.10
2018-11-12T11:15:20.123Z,13.98
2018-11-12T11:16:15.436Z,14.09
2018-11-12T11:17:20.111Z,14.03
2018-11-12T11:18:15.279Z,14.02
2018-11-12T11:19:16.232Z,13.94
2018-11-12T11:20:15.131Z,14.01
2018-11-12T11:21:15.131Z,14.02
2018-11-12T11:22:14.978Z,14.20
2018-11-12T11:23:14.924Z,14.27
2018-11-12T11:24:14.827Z,14.47
2018-11-12T11:25:14.846Z,14.36
2018-11-12T11:26:14.671Z,14.44
2018-11-12T11:27:14.648Z,14.44
2018-11-12T11:28:14.518Z,14.34
2018-11-12T11:29:14.558Z,14.38
2018-11-12T11:30:14.369Z,14.44
2018-11-12T11:31:14.366Z,14.41
2018-11-12T11:32:14.214Z,14.35
2018-11-12T11:33:14.177Z,14.41
2018-11-12T11:34:14.061Z,14.56
2018-11-12T11:35:14.093Z,14.49
2018-11-12T11:36:13.912Z,14.60
2018-11-12T11:37:14.212Z,14.46
2018-11-12T11:38:13.763Z,14.60
2018-11-12T11:39:13.699Z,14.69
2018-11-12T11:40:13.632Z,14.74
2018-11-12T11:41:13.616Z,14.79
2018-11-12T11:42:13.451Z,14.84
2018-11-12T11:43:13.422Z,14.74
2018-11-12T11:44:13.296Z,14.80
2018-11-12T11:45:13.331Z,14.74
2018-11-12T11:46:13.158Z,14.79
2018-11-12T11:47:13.151Z,14.83
2018-11-12T11:48:13.080Z,14.85
2018-11-12T11:49:12.949Z,14.88
2018-11-12T11:50:12.937Z,15.02
2018-11-12T11:51:12.859Z,15.13
2018-11-12T11:52:12.686Z,15.18
2018-11-12T11:53:12.667Z,15.03
2018-11-12T11:54:12.540Z,15.05
2018-11-12T11:55:12.578Z,15.06
2018-11-12T11:56:12.405Z,14.88
2018-11-12T11:57:12.443Z,14.97
2018-11-12T11:58:12.237Z,14.94
2018-11-12T11:59:12.192Z,15.08
2018-11-12T12:00:12.080Z,15.15
2018-11-12T12:01:12.106Z,15.18
2018-11-12T12:02:11.961Z,15.18
2018-11-12T12:03:11.862Z,15.09
2018-11-12T12:04:11.783Z,15.12
2018-11-12T12:05:11.722Z,15.12
2018-11-12T12:06:11.622Z,15.12
2018-11-12T12:07:11.633Z,15.31
2018-11-12T12:08:11.471Z,15.38
2018-11-12T12:09:11.453Z,15.45
2018-11-12T12:10:11.319Z,15.55
2018-11-12T12:11:11.351Z,15.46
2018-11-12T12:12:11.168Z,15.52
2018-11-12T12:13:11.165Z,15.55
2018-11-12T12:14:11.015Z,15.55
2018-11-12T12:15:10.974Z,15.57
2018-11-12T12:16:10.867Z,15.57
2018-11-12T12:17:10.851Z,15.49
2018-11-12T12:18:10.711Z,15.52
2018-11-12T12:19:10.664Z,15.52
2018-11-12T12:20:10.561Z,15.51
2018-11-12T12:21:10.552Z,15.52
2018-11-12T12:22:10.408Z,15.52
2018-11-12T12:23:10.340Z,15.43
2018-11-12T12:24:10.256Z,15.43
2018-11-12T12:25:10.329Z,15.51
2018-11-12T12:26:10.104Z,15.49
2018-11-12T12:27:10.037Z,15.49
2018-11-12T12:28:09.959Z,15.43
2018-11-12T12:29:09.887Z,15.43
2018-11-12T12:30:09.803Z,15.46
2018-11-12T12:31:09.737Z,15.51
2018-11-12T12:32:09.650Z,15.48
2018-11-12T12:33:09.585Z,15.48
2018-11-12T12:34:09.503Z,15.52
2018-11-12T12:35:09.431Z,15.46
2018-11-12T12:36:09.399Z,15.35
2018-11-12T12:37:09.280Z,15.38
2018-11-12T12:38:09.196Z,15.34
2018-11-12T12:39:09.128Z,15.28
2018-11-12T12:40:09.044Z,15.21
2018-11-12T12:41:08.977Z,15.15
2018-11-12T12:42:08.894Z,15.12
2018-11-12T12:43:08.824Z,15.24
2018-11-12T12:44:08.780Z,15.38
2018-11-12T12:45:08.746Z,15.39
2018-11-12T12:46:08.589Z,15.49
2018-11-12T12:47:08.523Z,15.51
2018-11-12T12:48:08.438Z,15.53
2018-11-12T12:49:08.372Z,15.53
2018-11-12T12:50:08.292Z,15.39
2018-11-12T12:51:08.220Z,15.31
2018-11-12T12:52:08.144Z,15.10
2018-11-12T12:53:08.069Z,15.06
2018-11-12T12:54:07.984Z,14.93
2018-11-12T12:55:07.916Z,14.94
2018-11-12T12:56:07.886Z,14.83
2018-11-12T12:57:07.766Z,14.68
2018-11-12T12:58:07.729Z,14.64
2018-11-12T12:59:07.611Z,14.61
2018-11-12T13:00:07.532Z,14.61
2018-11-12T13:01:07.459Z,14.59
2018-11-12T13:02:07.432Z,14.64
2018-11-12T13:03:07.306Z,14.60
2018-11-12T13:04:07.226Z,14.67
2018-11-12T13:05:08.158Z,14.60
2018-11-12T13:06:07.071Z,14.64